createdAt,value
2018-07-19T00:00:17.513Z,1009.03
2018-07-19T00:01:17.513Z,1009.04
2018-07-19T00:02:17.519Z,1009.05
2018-07-19T00:03:17.521Z,1009.04
2018-07-19T00:04:17.525Z,1009.11
2018-07-19T00:05:17.559Z,1009.11
2018-07-19T00:06:17.530Z,1009.11
2018-07-19T00:07:17.533Z,1009.12
2018-07-19T00:08:17.537Z,1009.14
2018-07-19T00:09:17.541Z,1009.16
2018-07-19T00:10:17.543Z,1009.13
2018-07-19T00:11:17.546Z,1009.11
2018-07-19T00:12:17.549Z,1009.11
2018-07-19T00:13:17.552Z,1009.09
2018-07-19T00:14:17.555Z,1009.10
2018-07-19T00:15:17.557Z,1009.11
2018-07-19T00:16:17.563Z,1009.09
2018-07-19T00:17:17.563Z,1009.11
2018-07-19T00:18:17.567Z,1009.13
2018-07-19T00:19:17.570Z,1009.12
2018-07-19T00:20:17.575Z,1009.12
2018-07-19T00:21:17.578Z,1009.11
2018-07-19T00:22:17.578Z,1009.10
2018-07-19T00:23:17.583Z,1009.12
2018-07-19T00:24:17.586Z,1009.14
2018-07-19T00:25:17.590Z,1009.16
2018-07-19T00:26:17.591Z,1009.16
2018-07-19T00:27:17.595Z,1009.10
2018-07-19T00:28:17.598Z,1009.12
2018-07-19T00:29:17.601Z,1009.11
2018-07-19T00:30:17.603Z,1009.12
2018-07-19T00:31:17.607Z,1009.12
2018-07-19T00:32:17.611Z,1009.13
2018-07-19T00:33:17.613Z,1009.15
2018-07-19T00:34:17.617Z,1009.13
2018-07-19T00:35:17.620Z,1009.13
2018-07-19T00:36:17.620Z,1009.13
2018-07-19T00:37:17.627Z,1009.09
2018-07-19T00:38:17.627Z,1009.11
2018-07-19T00:39:17.630Z,1009.08
2018-07-19T00:40:17.634Z,1009.05
2018-07-19T00:41:17.639Z,1009.03
2018-07-19T00:42:17.638Z,1009.02
2018-07-19T00:43:17.641Z,1009.05
2018-07-19T00:44:17.644Z,1009.04
2018-07-19T00:45:17.648Z,1009.05
2018-07-19T00:46:17.651Z,1009.03
2018-07-19T00:47:17.654Z,1009.09
2018-07-19T00:48:17.656Z,1009.03
2018-07-19T00:49:17.660Z,1009.03
2018-07-19T00:50:17.661Z,1009.04
2018-07-19T00:51:17.665Z,1009.06
2018-07-19T00:52:17.667Z,1009.03
2018-07-19T00:53:17.673Z,1009.04
2018-07-19T00:54:17.672Z,1009.04
2018-07-19T00:55:17.677Z,1009.07
2018-07-19T00:56:17.678Z,1009.06
2018-07-19T00:57:17.681Z,1009.08
2018-07-19T00:58:17.685Z,1009.06
2018-07-19T00:59:17.687Z,1009.06
2018-07-19T01:00:17.690Z,1009.05
2018-07-19T01:01:17.691Z,1009.06
2018-07-19T01:02:17.695Z,1009.06
2018-07-19T01:03:17.697Z,1009.06
2018-07-19T01:04:17.701Z,1009.09
2018-07-19T01:05:17.704Z,1009.04
2018-07-19T01:06:17.706Z,1009.08
2018-07-19T01:07:17.707Z,1009.09
2018-07-19T01:08:17.713Z,1009.09
2018-07-19T01:09:17.715Z,1009.11
2018-07-19T01:10:17.718Z,1009.12
2018-07-19T01:11:17.721Z,1009.08
2018-07-19T01:12:17.721Z,1009.11
2018-07-19T01:13:17.725Z,1009.09
2018-07-19T01:14:17.727Z,1009.09
2018-07-19T01:15:17.731Z,1009.08
2018-07-19T01:16:17.732Z,1009.10
2018-07-19T01:17:17.735Z,1009.09
2018-07-19T01:18:17.738Z,1009.08
2018-07-19T01:19:17.739Z,1009.08
2018-07-19T01:20:17.744Z,1009.09
2018-07-19T01:21:17.746Z,1009.06
2018-07-19T01:22:17.748Z,1009.07
2018-07-19T01:23:17.752Z,1009.08
2018-07-19T01:24:17.754Z,1009.09
2018-07-19T01:25:17.756Z,1009.06
2018-07-19T01:26:17.758Z,1009.02
2018-07-19T01:27:17.761Z,1009.01
2018-07-19T01:28:17.764Z,1009.03
2018-07-19T01:29:17.768Z,1009.02
2018-07-19T01:30:17.767Z,1009.02
2018-07-19T01:31:17.770Z,1009.03
2018-07-19T01:32:17.774Z,1009.03
2018-07-19T01:33:17.776Z,1008.99
2018-07-19T01:34:17.778Z,1008.98
2018-07-19T01:35:17.782Z,1008.96
2018-07-19T01:36:17.784Z,1008.92
2018-07-19T01:37:17.788Z,1008.93
2018-07-19T01:38:17.787Z,1008.93
2018-07-19T01:39:17.791Z,1008.95
2018-07-19T01:40:17.793Z,1008.91
2018-07-19T01:41:17.796Z,1008.92
2018-07-19T01:42:17.805Z,1008.93
2018-07-19T01:43:17.801Z,1008.92
2018-07-19T01:44:17.803Z,1008.93
2018-07-19T01:45:17.806Z,1008.95
2018-07-19T01:46:17.808Z,1008.92
2018-07-19T01:47:17.810Z,1008.97
2018-07-19T01:48:17.812Z,1009.01
2018-07-19T01:49:17.815Z,1008.98
2018-07-19T01:50:17.816Z,1009.01
2018-07-19T01:51:17.818Z,1008.98
2018-07-19T01:52:17.822Z,1008.98
2018-07-19T01:53:17.826Z,1008.96
2018-07-19T01:54:17.826Z,1008.92
2018-07-19T01:55:17.832Z,1008.92
2018-07-19T01:56:17.830Z,1008.93
2018-07-19T01:57:17.834Z,1008.91
2018-07-19T01:58:17.834Z,1008.91
2018-07-19T01:59:17.837Z,1008.89
2018-07-19T02:00:17.842Z,1008.90
2018-07-19T02:01:17.841Z,1008.87
2018-07-19T02:02:17.842Z,1008.89
2018-07-19T02:03:17.846Z,1008.90
2018-07-19T02:04:17.848Z,1008.89
2018-07-19T02:05:17.851Z,1008.88
2018-07-19T02:06:17.852Z,1008.92
2018-07-19T02:07:17.858Z,1008.94
2018-07-19T02:08:17.857Z,1008.92
2018-07-19T02:09:17.859Z,1008.92
2018-07-19T02:10:17.860Z,1008.94
2018-07-19T02:11:17.863Z,1008.96
2018-07-19T02:12:17.865Z,1008.96
2018-07-19T02:13:17.868Z,1008.95
2018-07-19T02:14:17.868Z,1008.92
2018-07-19T02:15:17.870Z,1008.96
2018-07-19T02:16:17.873Z,1008.95
2018-07-19T02:17:17.876Z,1008.95
2018-07-19T02:18:17.879Z,1008.92
2018-07-19T02:19:17.879Z,1008.90
2018-07-19T02:20:17.886Z,1008.94
2018-07-19T02:21:17.885Z,1008.89
2018-07-19T02:22:17.885Z,1008.90
2018-07-19T02:23:17.888Z,1008.90
2018-07-19T02:24:17.891Z,1008.92
2018-07-19T02:25:17.895Z,1008.89
2018-07-19T02:26:17.893Z,1008.94
2018-07-19T02:27:17.895Z,1008.92
2018-07-19T02:28:17.899Z,1008.95
2018-07-19T02:29:17.899Z,1008.95
2018-07-19T02:30:17.901Z,1008.91
2018-07-19T02:31:17.904Z,1008.92
2018-07-19T02:32:17.905Z,1008.95
2018-07-19T02:33:17.908Z,1008.93
2018-07-19T02:34:17.909Z,1008.91
2018-07-19T02:35:17.910Z,1008.95
2018-07-19T02:36:17.914Z,1008.95
2018-07-19T02:37:17.915Z,1008.96
2018-07-19T02:38:17.917Z,1008.90
2018-07-19T02:39:17.921Z,1008.88
2018-07-19T02:40:17.921Z,1008.88
2018-07-19T02:41:17.922Z,1008.93
2018-07-19T02:42:17.924Z,1008.93
2018-07-19T02:43:17.925Z,1008.96
2018-07-19T02:44:17.929Z,1008.94
2018-07-19T02:45:17.930Z,1008.96
2018-07-19T02:46:17.932Z,1008.93
2018-07-19T02:47:17.932Z,1008.96
2018-07-19T02:48:17.936Z,1008.95
2018-07-19T02:49:17.939Z,1008.95
2018-07-19T02:50:17.938Z,1008.90
2018-07-19T02:51:17.941Z,1008.96
2018-07-19T02:52:17.944Z,1008.92
2018-07-19T02:53:17.945Z,1008.94
2018-07-19T02:54:17.946Z,1008.95
2018-07-19T02:55:17.946Z,1008.90
2018-07-19T02:56:17.950Z,1008.91
2018-07-19T02:57:17.952Z,1008.92
2018-07-19T02:58:17.954Z,1008.94
2018-07-19T02:59:17.954Z,1008.94
2018-07-19T03:00:17.958Z,1008.92
2018-07-19T03:01:17.959Z,1008.88
2018-07-19T03:02:17.962Z,1008.89
2018-07-19T03:03:17.965Z,1008.90
2018-07-19T03:04:17.965Z,1008.89
2018-07-19T03:05:17.966Z,1008.91
2018-07-19T03:06:17.967Z,1008.93
2018-07-19T03:07:17.968Z,1008.91
2018-07-19T03:08:17.972Z,1008.92
2018-07-19T03:09:17.972Z,1008.92
2018-07-19T03:10:17.973Z,1008.94
2018-07-19T03:11:17.977Z,1008.91
2018-07-19T03:12:17.978Z,1008.95
2018-07-19T03:13:17.979Z,1008.90
2018-07-19T03:14:17.981Z,1008.94
2018-07-19T03:15:17.982Z,1008.94
2018-07-19T03:16:17.984Z,1008.91
2018-07-19T03:17:17.989Z,1008.95
2018-07-19T03:18:17.989Z,1008.97
2018-07-19T03:19:17.993Z,1008.94
2018-07-19T03:20:17.991Z,1008.94
2018-07-19T03:21:17.993Z,1008.92
2018-07-19T03:22:18.000Z,1008.91
2018-07-19T03:23:17.996Z,1008.91
2018-07-19T03:24:17.998Z,1008.93
2018-07-19T03:25:18.001Z,1008.93
2018-07-19T03:26:18.003Z,1008.91
2018-07-19T03:27:18.003Z,1008.92
2018-07-19T03:28:18.003Z,1008.93
2018-07-19T03:29:18.011Z,1008.94
2018-07-19T03:30:18.008Z,1008.96
2018-07-19T03:31:18.010Z,1008.97
2018-07-19T03:32:18.011Z,1008.94
2018-07-19T03:33:18.013Z,1008.93
2018-07-19T03:34:18.014Z,1008.95
2018-07-19T03:35:18.017Z,1008.96
2018-07-19T03:36:18.018Z,1008.94
2018-07-19T03:37:18.020Z,1008.97
2018-07-19T03:38:18.021Z,1008.95
2018-07-19T03:39:18.022Z,1008.98
2018-07-19T03:40:18.026Z,1008.95
2018-07-19T03:41:18.029Z,1008.94
2018-07-19T03:42:18.027Z,1008.99
2018-07-19T03:43:18.029Z,1008.98
2018-07-19T03:44:18.029Z,1009.01
2018-07-19T03:45:18.034Z,1009.00
2018-07-19T03:46:18.034Z,1008.99
2018-07-19T03:47:18.035Z,1008.97
2018-07-19T03:48:18.037Z,1008.98
2018-07-19T03:49:18.040Z,1008.98
2018-07-19T03:50:18.039Z,1008.96
2018-07-19T03:51:18.042Z,1008.96
2018-07-19T03:52:18.043Z,1008.94
2018-07-19T03:53:18.046Z,1008.92
2018-07-19T03:54:18.046Z,1008.94
2018-07-19T03:55:18.048Z,1008.94
2018-07-19T03:56:18.050Z,1008.95
2018-07-19T03:57:18.052Z,1008.92
2018-07-19T03:58:18.052Z,1008.93
2018-07-19T03:59:18.054Z,1008.90
2018-07-19T04:00:18.056Z,1008.92
2018-07-19T04:01:18.057Z,1008.91
2018-07-19T04:02:18.057Z,1008.91
2018-07-19T04:03:18.061Z,1008.90
2018-07-19T04:04:18.061Z,1008.92
2018-07-19T04:05:18.065Z,1008.87
2018-07-19T04:06:18.064Z,1008.90
2018-07-19T04:07:18.068Z,1008.88
2018-07-19T04:08:18.068Z,1008.85
2018-07-19T04:09:18.069Z,1008.92
2018-07-19T04:10:18.072Z,1008.89
2018-07-19T04:11:18.072Z,1008.89
2018-07-19T04:12:18.075Z,1008.88
2018-07-19T04:13:18.076Z,1008.90
2018-07-19T04:14:18.077Z,1008.87
2018-07-19T04:15:18.079Z,1008.90
2018-07-19T04:16:18.081Z,1008.96
2018-07-19T04:17:18.082Z,1008.93
2018-07-19T04:18:18.084Z,1008.96
2018-07-19T04:19:18.085Z,1008.95
2018-07-19T04:20:18.088Z,1008.94
2018-07-19T04:21:18.089Z,1008.95
2018-07-19T04:22:18.090Z,1008.96
2018-07-19T04:23:18.092Z,1008.94
2018-07-19T04:24:18.094Z,1008.89
2018-07-19T04:25:18.096Z,1008.90
2018-07-19T04:26:18.095Z,1008.89
2018-07-19T04:27:18.098Z,1008.91
2018-07-19T04:28:18.098Z,1008.87
2018-07-19T04:29:18.100Z,1008.90
2018-07-19T04:30:18.102Z,1008.92
2018-07-19T04:31:18.103Z,1008.90
2018-07-19T04:32:18.144Z,1008.90
2018-07-19T04:33:18.107Z,1008.88
2018-07-19T04:34:18.107Z,1008.91
2018-07-19T04:35:18.110Z,1008.90
2018-07-19T04:36:18.112Z,1008.91
2018-07-19T04:37:18.117Z,1008.91
2018-07-19T04:38:18.165Z,1008.93
2018-07-19T04:39:18.114Z,1008.93
2018-07-19T04:40:18.117Z,1008.92
2018-07-19T04:41:18.119Z,1008.96
2018-07-19T04:42:18.120Z,1008.98
2018-07-19T04:43:18.126Z,1008.99
2018-07-19T04:44:18.124Z,1009.02
2018-07-19T04:45:18.124Z,1009.00
2018-07-19T04:46:18.126Z,1009.06
2018-07-19T04:47:18.129Z,1009.05
2018-07-19T04:48:18.142Z,1009.02
2018-07-19T04:49:18.133Z,1009.01
2018-07-19T04:50:18.133Z,1008.99
2018-07-19T04:51:18.135Z,1009.04
2018-07-19T04:52:18.141Z,1008.99
2018-07-19T04:53:18.139Z,1008.97
2018-07-19T04:54:18.140Z,1009.02
2018-07-19T04:55:18.142Z,1009.01
2018-07-19T04:56:18.144Z,1009.01
2018-07-19T04:57:18.147Z,1009.06
2018-07-19T04:58:18.147Z,1009.05
2018-07-19T04:59:18.153Z,1009.08
2018-07-19T05:00:18.153Z,1009.12
2018-07-19T05:01:18.155Z,1009.10
2018-07-19T05:02:18.156Z,1009.10
2018-07-19T05:03:18.157Z,1009.14
2018-07-19T05:04:18.160Z,1009.12
2018-07-19T05:05:18.162Z,1009.08
2018-07-19T05:06:18.164Z,1009.13
2018-07-19T05:07:18.166Z,1009.12
2018-07-19T05:08:18.169Z,1009.17
2018-07-19T05:09:18.171Z,1009.13
2018-07-19T05:10:18.173Z,1009.17
2018-07-19T05:11:18.175Z,1009.18
2018-07-19T05:12:18.178Z,1009.15
2018-07-19T05:13:18.182Z,1009.15
2018-07-19T05:14:18.183Z,1009.17
2018-07-19T05:15:18.185Z,1009.13
2018-07-19T05:16:18.190Z,1009.12
2018-07-19T05:17:18.191Z,1009.13
2018-07-19T05:18:18.194Z,1009.12
2018-07-19T05:19:18.197Z,1009.15
2018-07-19T05:20:18.199Z,1009.19
2018-07-19T05:21:18.203Z,1009.18
2018-07-19T05:22:18.203Z,1009.19
2018-07-19T05:23:18.227Z,1009.20
2018-07-19T05:24:18.211Z,1009.21
2018-07-19T05:25:18.214Z,1009.19
2018-07-19T05:26:18.217Z,1009.20
2018-07-19T05:27:18.222Z,1009.18
2018-07-19T05:28:18.226Z,1009.18
2018-07-19T05:29:18.229Z,1009.17
2018-07-19T05:30:18.231Z,1009.21
2018-07-19T05:31:18.234Z,1009.18
2018-07-19T05:32:18.238Z,1009.18
2018-07-19T05:33:18.241Z,1009.13
2018-07-19T05:34:18.244Z,1009.17
2018-07-19T05:35:18.248Z,1009.18
2018-07-19T05:36:18.253Z,1009.19
2018-07-19T05:37:18.255Z,1009.17
2018-07-19T05:38:18.258Z,1009.17
2018-07-19T05:39:18.262Z,1009.17
2018-07-19T05:40:18.266Z,1009.17
2018-07-19T05:41:18.271Z,1009.22
2018-07-19T05:42:18.301Z,1009.20
2018-07-19T05:43:18.278Z,1009.20
2018-07-19T05:44:18.281Z,1009.22
2018-07-19T05:45:18.285Z,1009.19
2018-07-19T05:46:18.289Z,1009.21
2018-07-19T05:47:18.294Z,1009.24
2018-07-19T05:48:18.298Z,1009.25
2018-07-19T05:49:18.302Z,1009.21
2018-07-19T05:50:18.304Z,1009.21
2018-07-19T05:51:18.314Z,1009.23
2018-07-19T05:52:18.312Z,1009.24
2018-07-19T05:53:18.317Z,1009.22
2018-07-19T05:54:18.322Z,1009.21
2018-07-19T05:55:18.326Z,1009.23
2018-07-19T05:56:18.330Z,1009.22
2018-07-19T05:57:18.335Z,1009.20
2018-07-19T05:58:18.347Z,1009.20
2018-07-19T05:59:18.342Z,1009.16
2018-07-19T06:00:18.346Z,1009.14
2018-07-19T06:01:18.352Z,1009.18
2018-07-19T06:02:18.355Z,1009.14
2018-07-19T06:03:18.358Z,1009.16
2018-07-19T06:04:18.363Z,1009.25
2018-07-19T06:05:18.368Z,1009.22
2018-07-19T06:06:18.373Z,1009.24
2018-07-19T06:07:18.376Z,1009.27
2018-07-19T06:08:18.381Z,1009.23
2018-07-19T06:09:18.384Z,1009.26
2018-07-19T06:10:18.389Z,1009.24
2018-07-19T06:11:18.393Z,1009.22
2018-07-19T06:12:18.401Z,1009.25
2018-07-19T06:13:18.403Z,1009.27
2018-07-19T06:14:18.406Z,1009.26
2018-07-19T06:15:18.412Z,1009.25
2018-07-19T06:16:18.416Z,1009.28
2018-07-19T06:17:18.421Z,1009.21
2018-07-19T06:18:18.425Z,1009.18
2018-07-19T06:19:18.430Z,1009.26
2018-07-19T06:20:18.435Z,1009.24
2018-07-19T06:21:18.440Z,1009.22
2018-07-19T06:22:18.445Z,1009.26
2018-07-19T06:23:18.451Z,1009.25
2018-07-19T06:24:18.456Z,1009.24
2018-07-19T06:25:18.460Z,1009.28
2018-07-19T06:26:18.465Z,1009.28
2018-07-19T06:27:18.471Z,1009.28
2018-07-19T06:28:18.496Z,1009.26
2018-07-19T06:29:18.483Z,1009.23
2018-07-19T06:30:18.486Z,1009.24
2018-07-19T06:31:18.491Z,1009.28
2018-07-19T06:32:18.499Z,1009.27
2018-07-19T06:33:18.503Z,1009.22
2018-07-19T06:34:18.507Z,1009.18
2018-07-19T06:35:18.512Z,1009.20
2018-07-19T06:36:18.520Z,1009.26
2018-07-19T06:37:18.524Z,1009.26
2018-07-19T06:38:18.531Z,1009.29
2018-07-19T06:39:18.536Z,1009.29
2018-07-19T06:40:18.541Z,1009.25
2018-07-19T06:41:18.570Z,1009.26
2018-07-19T06:42:18.552Z,1009.25
2018-07-19T06:43:18.558Z,1009.24
2018-07-19T06:44:18.564Z,1009.23
2018-07-19T06:45:18.570Z,1009.28
2018-07-19T06:46:18.576Z,1009.27
2018-07-19T06:47:18.580Z,1009.29
2018-07-19T06:48:18.586Z,1009.35
2018-07-19T06:49:18.602Z,1009.33
2018-07-19T06:50:18.598Z,1009.35
2018-07-19T06:51:18.605Z,1009.35
2018-07-19T06:52:18.612Z,1009.38
2018-07-19T06:53:18.619Z,1009.37
2018-07-19T06:54:18.625Z,1009.38
2018-07-19T06:55:18.629Z,1009.37
2018-07-19T06:56:18.636Z,1009.35
2018-07-19T06:57:18.644Z,1009.37
2018-07-19T06:58:18.648Z,1009.39
2018-07-19T06:59:18.659Z,1009.34
2018-07-19T07:00:18.663Z,1009.36
2018-07-19T07:01:18.668Z,1009.40
2018-07-19T07:02:18.673Z,1009.42
2018-07-19T07:03:18.681Z,1009.42
2018-07-19T07:04:18.688Z,1009.42
2018-07-19T07:05:18.695Z,1009.40
2018-07-19T07:06:18.701Z,1009.43
2018-07-19T07:07:18.707Z,1009.44
2018-07-19T07:08:18.715Z,1009.46
2018-07-19T07:09:18.721Z,1009.45
2018-07-19T07:10:18.726Z,1009.42
2018-07-19T07:11:18.733Z,1009.43
2018-07-19T07:12:18.741Z,1009.42
2018-07-19T07:13:18.748Z,1009.42
2018-07-19T07:14:18.753Z,1009.39
2018-07-19T07:15:18.760Z,1009.38
2018-07-19T07:16:18.767Z,1009.40
2018-07-19T07:17:18.775Z,1009.38
2018-07-19T07:18:18.781Z,1009.38
2018-07-19T07:19:18.788Z,1009.38
2018-07-19T07:20:18.794Z,1009.42
2018-07-19T07:21:18.821Z,1009.40
2018-07-19T07:22:18.807Z,1009.41
2018-07-19T07:23:18.815Z,1009.43
2018-07-19T07:24:18.820Z,1009.37
2018-07-19T07:25:18.829Z,1009.44
2018-07-19T07:26:18.837Z,1009.48
2018-07-19T07:27:18.844Z,1009.46
2018-07-19T07:28:18.881Z,1009.48
2018-07-19T07:29:18.856Z,1009.47
2018-07-19T07:30:18.862Z,1009.49
2018-07-19T07:31:18.869Z,1009.52
2018-07-19T07:32:18.876Z,1009.50
2018-07-19T07:33:18.885Z,1009.53
2018-07-19T07:34:18.891Z,1009.55
2018-07-19T07:35:18.896Z,1009.53
2018-07-19T07:36:18.905Z,1009.55
2018-07-19T07:37:18.913Z,1009.54
2018-07-19T07:38:18.918Z,1009.53
2018-07-19T07:39:18.925Z,1009.54
2018-07-19T07:40:18.933Z,1009.56
2018-07-19T07:41:18.941Z,1009.56
2018-07-19T07:42:18.950Z,1009.60
2018-07-19T07:43:18.954Z,1009.63
2018-07-19T07:44:18.976Z,1009.63
2018-07-19T07:45:18.972Z,1009.55
2018-07-19T07:46:18.977Z,1009.59
2018-07-19T07:47:18.987Z,1009.66
2018-07-19T07:48:18.993Z,1009.94
2018-07-19T07:49:19.001Z,1009.61
2018-07-19T07:50:19.010Z,1009.63
2018-07-19T07:51:19.018Z,1009.66
2018-07-19T07:52:19.026Z,1009.80
2018-07-19T07:53:19.036Z,1009.64
2018-07-19T07:54:19.063Z,1009.74
2018-07-19T07:55:19.050Z,1009.81
2018-07-19T07:56:19.059Z,1009.67
2018-07-19T07:57:19.068Z,1009.67
2018-07-19T07:58:19.076Z,1009.69
2018-07-19T07:59:19.089Z,1009.69
2018-07-19T08:00:19.094Z,1009.70
2018-07-19T08:01:19.103Z,1009.69
2018-07-19T08:02:19.111Z,1009.67
2018-07-19T08:03:19.120Z,1009.69
2018-07-19T08:04:19.130Z,1009.85
2018-07-19T08:05:19.139Z,1009.70
2018-07-19T08:06:19.147Z,1009.71
2018-07-19T08:07:19.156Z,1009.73
2018-07-19T08:08:19.165Z,1009.94
2018-07-19T08:09:19.175Z,1010.53
2018-07-19T08:10:19.184Z,1009.84
2018-07-19T08:11:19.193Z,1009.77
2018-07-19T08:12:19.203Z,1009.78
2018-07-19T08:13:19.213Z,1009.74
2018-07-19T08:14:19.220Z,1009.71
2018-07-19T08:15:19.232Z,1009.70
2018-07-19T08:16:19.242Z,1009.66
2018-07-19T08:17:19.250Z,1009.69
2018-07-19T08:18:19.259Z,1009.68
2018-07-19T08:19:19.269Z,1009.67
2018-07-19T08:20:19.293Z,1009.70
2018-07-19T08:21:19.291Z,1009.71
2018-07-19T08:22:19.299Z,1009.72
2018-07-19T08:23:19.308Z,1009.71
2018-07-19T08:24:19.317Z,1009.80
2018-07-19T08:25:19.329Z,1010.37
2018-07-19T08:26:19.336Z,1009.92
2018-07-19T08:27:19.346Z,1010.33
2018-07-19T08:28:19.356Z,1009.82
2018-07-19T08:29:19.369Z,1009.78
2018-07-19T08:30:19.376Z,1009.77
2018-07-19T08:31:19.387Z,1009.86
2018-07-19T08:32:19.405Z,1009.72
2018-07-19T08:33:19.407Z,1009.77
2018-07-19T08:34:19.417Z,1009.76
2018-07-19T08:35:19.428Z,1009.77
2018-07-19T08:36:19.446Z,1009.76
2018-07-19T08:37:19.448Z,1009.75
2018-07-19T08:38:19.458Z,1009.74
2018-07-19T08:39:19.470Z,1009.75
2018-07-19T08:40:19.482Z,1009.69
2018-07-19T08:41:19.491Z,1009.71
2018-07-19T08:42:19.502Z,1009.73
2018-07-19T08:43:19.514Z,1009.66
2018-07-19T08:44:19.523Z,1009.64
2018-07-19T08:45:19.536Z,1009.67
2018-07-19T08:46:19.547Z,1009.67
2018-07-19T08:47:19.557Z,1009.72
2018-07-19T08:48:19.568Z,1009.69
2018-07-19T08:49:19.580Z,1009.70
2018-07-19T08:50:19.590Z,1009.71
2018-07-19T08:51:19.603Z,1009.91
2018-07-19T08:52:19.613Z,1009.67
2018-07-19T08:53:19.625Z,1009.67
2018-07-19T08:54:19.637Z,1009.92
2018-07-19T08:55:19.648Z,1009.85
2018-07-19T08:56:19.660Z,1009.73
2018-07-19T08:57:19.672Z,1009.98
2018-07-19T08:58:19.684Z,1010.03
2018-07-19T08:59:19.696Z,1010.01
2018-07-19T09:00:19.714Z,1009.74
2018-07-19T09:01:19.722Z,1009.72
2018-07-19T09:02:19.777Z,1009.72
2018-07-19T09:03:19.748Z,1009.78
2018-07-19T09:04:19.761Z,1009.78
2018-07-19T09:05:19.776Z,1009.86
2018-07-19T09:06:19.786Z,1009.95
2018-07-19T09:07:19.802Z,1009.85
2018-07-19T09:08:19.818Z,1009.85
2018-07-19T09:09:19.827Z,1009.69
2018-07-19T09:10:19.841Z,1009.74
2018-07-19T09:11:19.859Z,1009.88
2018-07-19T09:12:19.905Z,1009.78
2018-07-19T09:13:19.883Z,1009.70
2018-07-19T09:14:19.897Z,1009.72
2018-07-19T09:15:19.911Z,1009.69
2018-07-19T09:16:19.924Z,1009.71
2018-07-19T09:17:19.938Z,1009.64
2018-07-19T09:18:19.954Z,1009.72
2018-07-19T09:19:20.014Z,1009.61
2018-07-19T09:20:19.980Z,1009.73
2018-07-19T09:21:19.994Z,1009.67
2018-07-19T09:22:20.010Z,1009.93
2018-07-19T09:23:20.023Z,1009.79
2018-07-19T09:24:20.035Z,1009.61
2018-07-19T09:25:20.051Z,1009.58
2018-07-19T09:26:20.063Z,1009.59
2018-07-19T09:27:20.077Z,1009.68
2018-07-19T09:28:20.090Z,1009.55
2018-07-19T09:29:20.105Z,1009.56
2018-07-19T09:30:20.117Z,1009.63
2018-07-19T09:31:20.132Z,1009.84
2018-07-19T09:32:20.144Z,1009.59
2018-07-19T09:33:20.158Z,1009.62
2018-07-19T09:34:20.170Z,1009.58
2018-07-19T09:35:20.185Z,1009.52
2018-07-19T09:36:20.199Z,1009.51
2018-07-19T09:37:20.213Z,1009.53
2018-07-19T09:38:20.270Z,1009.77
2018-07-19T09:39:20.239Z,1009.82
2018-07-19T09:40:20.252Z,1009.52
2018-07-19T09:41:20.265Z,1009.69
2018-07-19T09:42:20.277Z,1009.90
2018-07-19T09:43:20.291Z,1009.51
2018-07-19T09:44:20.304Z,1009.45
2018-07-19T09:45:20.317Z,1009.41
2018-07-19T09:46:20.330Z,1009.42
2018-07-19T09:47:20.348Z,1009.54
2018-07-19T09:48:20.358Z,1009.63
2018-07-19T09:49:20.370Z,1009.84
2018-07-19T09:50:20.383Z,1009.54
2018-07-19T09:51:20.396Z,1009.61
2018-07-19T09:52:20.410Z,1009.43
2018-07-19T09:53:20.423Z,1009.50
2018-07-19T09:54:20.437Z,1009.69
2018-07-19T09:55:20.452Z,1009.67
2018-07-19T09:56:20.465Z,1009.73
2018-07-19T09:57:20.477Z,1009.53
2018-07-19T09:58:20.489Z,1009.54
2018-07-19T09:59:20.524Z,1009.68
2018-07-19T10:00:20.520Z,1009.72
2018-07-19T10:01:20.533Z,1009.71
2018-07-19T10:02:20.547Z,1009.70
2018-07-19T10:03:20.560Z,1009.71
2018-07-19T10:04:20.576Z,1009.69
2018-07-19T10:05:20.591Z,1009.66
2018-07-19T10:06:20.604Z,1009.72
2018-07-19T10:07:20.617Z,1009.69
2018-07-19T10:08:20.633Z,1009.72
2018-07-19T10:09:20.649Z,1009.79
2018-07-19T10:10:20.710Z,1009.74
2018-07-19T10:11:20.676Z,1009.76
2018-07-19T10:12:20.692Z,1009.73
2018-07-19T10:13:20.707Z,1009.79
2018-07-19T10:14:20.719Z,1009.71
2018-07-19T10:15:20.760Z,1009.73
2018-07-19T10:16:20.751Z,1009.75
2018-07-19T10:17:20.811Z,1009.73
2018-07-19T10:18:20.779Z,1009.69
2018-07-19T10:19:20.794Z,1009.62
2018-07-19T10:20:20.809Z,1009.52
2018-07-19T10:21:20.825Z,1009.57
2018-07-19T10:22:20.837Z,1009.48
2018-07-19T10:23:20.852Z,1009.66
2018-07-19T10:24:20.894Z,1009.71
2018-07-19T10:25:20.883Z,1009.65
2018-07-19T10:26:20.897Z,1009.66
2018-07-19T10:27:20.917Z,1009.64
2018-07-19T10:28:20.926Z,1009.55
2018-07-19T10:29:20.943Z,1009.57
2018-07-19T10:30:20.958Z,1009.56
2018-07-19T10:31:20.970Z,1009.56
2018-07-19T10:32:21.034Z,1009.58
2018-07-19T10:33:20.999Z,1009.60
2018-07-19T10:34:21.071Z,1009.27
2018-07-19T10:35:21.030Z,1009.09
2018-07-19T10:36:21.044Z,1009.14
2018-07-19T10:37:21.058Z,1009.07
2018-07-19T10:38:21.080Z,1009.09
2018-07-19T10:39:21.090Z,1009.08
2018-07-19T10:40:21.102Z,1009.10
2018-07-19T10:41:21.119Z,1009.11
2018-07-19T10:42:21.132Z,1009.10
2018-07-19T10:43:21.146Z,1009.48
2018-07-19T10:44:21.206Z,1009.18
2018-07-19T10:45:21.174Z,1009.58
2018-07-19T10:46:21.187Z,1009.26
2018-07-19T10:47:21.203Z,1009.13
2018-07-19T10:48:21.217Z,1009.15
2018-07-19T10:49:21.230Z,1009.16
2018-07-19T10:50:21.243Z,1009.17
2018-07-19T10:51:21.257Z,1009.08
2018-07-19T10:52:21.273Z,1009.19
2018-07-19T10:53:21.286Z,1009.21
2018-07-19T10:54:21.299Z,1009.21
2018-07-19T10:55:21.313Z,1009.43
2018-07-19T10:56:21.327Z,1009.45
2018-07-19T10:57:21.387Z,1009.18
2018-07-19T10:58:21.353Z,1009.26
2018-07-19T10:59:21.366Z,1009.00
2018-07-19T11:00:21.379Z,1008.96
2018-07-19T11:01:21.392Z,1009.05
2018-07-19T11:02:21.408Z,1009.02
2018-07-19T11:03:21.420Z,1009.03
2018-07-19T11:04:21.434Z,1009.39
2018-07-19T11:05:21.447Z,1009.38
2018-07-19T11:06:21.460Z,1009.38
2018-07-19T11:07:21.473Z,1009.20
2018-07-19T11:08:21.488Z,1009.38
2018-07-19T11:09:21.521Z,1008.98
2018-07-19T11:10:21.514Z,1008.93
2018-07-19T11:11:21.527Z,1008.92
2018-07-19T11:12:21.540Z,1008.97
2018-07-19T11:13:21.552Z,1008.93
2018-07-19T11:14:21.566Z,1008.90
2018-07-19T11:15:21.580Z,1008.90
2018-07-19T11:16:21.596Z,1009.15
2018-07-19T11:17:21.609Z,1009.27
2018-07-19T11:18:21.619Z,1008.97
2018-07-19T11:19:21.632Z,1008.95
2018-07-19T11:20:21.649Z,1008.90
2018-07-19T11:21:21.661Z,1009.17
2018-07-19T11:22:21.673Z,1009.18
2018-07-19T11:23:21.688Z,1009.15
2018-07-19T11:24:21.701Z,1008.94
2018-07-19T11:25:21.712Z,1009.05
2018-07-19T11:26:21.725Z,1008.96
2018-07-19T11:27:21.737Z,1008.81
2018-07-19T11:28:21.755Z,1008.78
2018-07-19T11:29:21.764Z,1008.77
2018-07-19T11:30:21.775Z,1008.73
2018-07-19T11:31:21.789Z,1008.76
2018-07-19T11:32:21.802Z,1008.76
2018-07-19T11:33:21.816Z,1008.79
2018-07-19T11:34:21.827Z,1008.69
2018-07-19T11:35:21.909Z,1008.75
2018-07-19T11:36:21.853Z,1008.70
2018-07-19T11:37:21.868Z,1008.61
2018-07-19T11:38:21.878Z,1008.63
2018-07-19T11:39:21.891Z,1008.61
2018-07-19T11:40:21.904Z,1008.59
2018-07-19T11:41:21.917Z,1008.56
2018-07-19T11:42:21.931Z,1008.61
2018-07-19T11:43:21.941Z,1008.60
2018-07-19T11:44:21.953Z,1008.57
2018-07-19T11:45:21.966Z,1008.54
2018-07-19T11:46:21.978Z,1008.60
2018-07-19T11:47:21.989Z,1008.62
2018-07-19T11:48:22.003Z,1008.63
2018-07-19T11:49:22.016Z,1008.60
2018-07-19T11:50:22.027Z,1008.63
2018-07-19T11:51:22.038Z,1008.62
2018-07-19T11:52:22.049Z,1008.61
2018-07-19T11:53:22.062Z,1008.55
2018-07-19T11:54:22.071Z,1008.50
2018-07-19T11:55:22.086Z,1008.54
2018-07-19T11:56:22.097Z,1008.47
2018-07-19T11:57:22.108Z,1008.51
2018-07-19T11:58:22.120Z,1008.48
2018-07-19T11:59:22.131Z,1008.47
2018-07-19T12:00:22.144Z,1008.50
2018-07-19T12:01:22.157Z,1008.52
2018-07-19T12:02:22.166Z,1008.50
2018-07-19T12:03:22.178Z,1008.47
2018-07-19T12:04:22.190Z,1008.48
2018-07-19T12:05:22.201Z,1008.44